Time;durP1;ratioP1;P1;durP2;ratioP2;P2;SDS_P1;SDS_P2;PMS_P1;PMS_P2;Temp;Humidity;BMP_temperature;BMP_pressure;BME280_temperature;BME280_humidity;BME280_pressure;Samples;Min_cycle;Max_cycle;Signal;HPM_P1;HPM_P2
2023/10/27 00:00:03;;;;;;;2.00;1.60;;;;;;;11.79;87.85;97137.28;102783;1263;3254534;-18
2023/10/27 00:02:31;;;;;;;3.40;2.00;;;;;;;12.12;86.42;97139.63;104968;1264;61199;-18
2023/10/27 00:04:59;;;;;;;4.40;2.30;;;;;;;12.00;86.19;97136.53;104998;1264;70625;-18
2023/10/27 00:07:26;;;;;;;4.80;2.40;;;;;;;11.76;86.81;97136.57;105043;1264;74319;-18
2023/10/27 00:09:54;;;;;;;3.90;2.60;;;;;;;11.48;87.46;97130.20;105140;1263;71401;-18
2023/10/27 00:12:21;;;;;;;4.00;1.80;;;;;;;11.26;88.22;97131.55;105118;1263;61692;-18
2023/10/27 00:14:49;;;;;;;3.00;2.00;;;;;;;11.61;88.40;97128.70;104987;1268;61112;-18
2023/10/27 00:17:16;;;;;;;3.20;2.20;;;;;;;11.98;87.36;97127.08;105094;1268;72176;-19
2023/10/27 00:19:44;;;;;;;3.50;2.60;;;;;;;11.93;87.27;97121.59;105165;1264;74246;-18
2023/10/27 00:22:12;;;;;;;4.70;3.10;;;;;;;11.73;87.60;97119.72;105098;1269;72750;-18
2023/10/27 00:24:40;;;;;;;6.30;3.30;;;;;;;11.45;88.47;97123.82;105092;1262;61125;-18
2023/10/27 00:27:07;;;;;;;3.70;2.00;;;;;;;11.30;88.88;97128.55;105115;1264;61058;-18
2023/10/27 00:29:35;;;;;;;5.10;2.30;;;;;;;11.71;88.54;97126.62;105135;1270;73033;-18
2023/10/27 00:32:03;;;;;;;3.60;2.50;;;;;;;12.15;86.60;97126.48;105157;1264;73250;-19
2023/10/27 00:34:31;;;;;;;3.70;2.90;;;;;;;12.09;85.58;97119.20;104901;1264;72693;-18
2023/10/27 00:36:58;;;;;;;4.60;2.60;;;;;;;11.79;86.01;97119.77;104931;1267;61044;-18
2023/10/27 00:47:05;;;;;;;4.70;2.30;;;;;;;12.02;86.18;97117.08;102612;1294;600145;-18
2023/10/27 00:57:16;;;;;;;3.70;2.80;;;;;;;10.94;88.70;97121.06;102750;1289;599983;-18
2023/10/27 01:07:28;;;;;;;5.10;2.90;;;;;;;11.10;89.70;97120.08;102678;1295;600205;-18
2023/10/27 01:09:55;;;;;;;3.00;2.00;;;;;;;10.89;90.67;97116.13;104936;1269;61187;-18
2023/10/27 01:20:04;;;;;;;3.70;2.40;;;;;;;11.35;88.36;97103.11;102590;1295;599447;-18
2023/10/27 01:22:32;;;;;;;5.00;3.10;;;;;;;11.04;89.41;97103.80;104875;1271;61189;-18
2023/10/27 01:25:00;;;;;;;3.60;2.30;;;;;;;10.88;90.02;97110.14;104870;1267;61130;-18
2023/10/27 01:27:28;;;;;;;3.10;2.40;;;;;;;11.31;89.44;97112.98;104714;1267;72235;-18
2023/10/27 01:29:56;;;;;;;3.70;2.40;;;;;;;11.59;87.24;97110.70;104773;1267;73974;-18
2023/10/27 01:39:57;;;;;;;3.90;2.10;;;;;;;10.88;90.16;97116.67;103107;1286;600112;-18
2023/10/27 01:42:25;;;;;;;5.10;2.70;;;;;;;11.19;89.16;97115.30;105073;1270;61136;-19
2023/10/27 01:44:53;;;;;;;3.50;2.70;;;;;;;11.13;88.56;97115.67;104897;1264;62840;-18
2023/10/27 01:47:20;;;;;;;3.90;2.80;;;;;;;10.92;88.88;97115.74;104831;1264;70980;-19
2023/10/27 01:49:48;;;;;;;2.90;2.20;;;;;;;10.72;89.73;97109.32;104841;1269;73076;-18
2023/10/27 01:52:18;;;;;;;2.90;1.80;;;;;;;11.12;89.21;97107.58;104858;1264;71440;-19
2023/10/27 02:02:44;;;;;;;2.90;2.30;;;;;;;11.06;87.11;97108.59;102594;1294;615105;-20
2023/10/27 02:05:11;;;;;;;1.70;1.50;;;;;;;10.79;88.06;97110.20;105209;1264;61941;-20
2023/10/27 02:07:38;;;;;;;3.50;1.90;;;;;;;11.15;87.55;97107.29;105176;1268;61189;-20
2023/10/27 02:10:06;;;;;;;3.00;2.30;;;;;;;11.47;85.92;97105.20;105163;1264;72647;-20
2023/10/27 02:12:33;;;;;;;3.70;2.50;;;;;;;11.36;85.36;97106.77;104843;1267;73583;-20
2023/10/27 02:15:00;;;;;;;3.40;2.50;;;;;;;11.08;85.53;97107.35;102696;1262;3318712;-20
2023/10/27 02:17:27;;;;;;;4.10;2.70;;;;;;;10.73;86.55;97113.55;104973;1263;61093;-20
2023/10/27 02:19:55;;;;;;;3.10;2.20;;;;;;;10.52;87.89;97116.77;105168;1267;61160;-20
2023/10/27 02:22:22;;;;;;;3.60;2.40;;;;;;;10.77;88.25;97114.00;105162;1263;72228;-21
2023/10/27 02:24:50;;;;;;;3.50;2.50;;;;;;;10.84;87.78;97121.69;105038;1264;74254;-20
2023/10/27 02:27:17;;;;;;;5.30;2.70;;;;;;;10.63;88.24;97126.10;104925;1263;71498;-20
2023/10/27 02:29:44;;;;;;;2.70;2.20;;;;;;;10.33;89.91;97126.71;104909;1267;61160;-20
2023/10/27 02:32:11;;;;;;;3.40;2.20;;;;;;;10.33;91.15;97125.77;104879;1267;61105;-20
2023/10/27 02:34:38;;;;;;;4.40;3.00;;;;;;;10.65;89.52;97122.90;105049;1264;73055;-20
2023/10/27 02:37:05;;;;;;;4.20;2.70;;;;;;;10.61;89.19;97122.92;104914;1267;73269;-21
2023/10/27 02:39:32;;;;;;;4.30;2.90;;;;;;;10.43;89.63;97122.57;105107;1264;72585;-20
2023/10/27 02:42:00;;;;;;;3.20;2.30;;;;;;;10.25;90.49;97123.71;105049;1264;61740;-20
2023/10/27 02:44:27;;;;;;;3.60;2.60;;;;;;;10.59;90.08;97116.73;105170;1263;61144;-20
2023/10/27 02:46:54;;;;;;;3.90;2.80;;;;;;;10.82;88.36;97107.68;105117;1266;73063;-19
2023/10/27 02:49:20;;;;;;;8.70;2.90;;;;;;;10.67;88.28;97099.85;105260;1266;74148;-19
2023/10/27 02:51:47;;;;;;;6.50;3.20;;;;;;;10.55;88.56;97099.29;105224;1264;72988;-19
2023/10/27 02:54:14;;;;;;;3.20;2.50;;;;;;;10.37;89.03;97103.02;104979;1263;61685;-19
2023/10/27 02:56:41;;;;;;;5.70;2.90;;;;;;;10.60;89.06;97104.03;105027;1267;61400;-19
2023/10/27 02:59:09;;;;;;;3.30;2.70;;;;;;;10.76;88.10;97107.70;105201;1264;72873;-19
2023/10/27 03:01:36;;;;;;;4.40;2.80;;;;;;;10.66;88.12;97112.84;105203;1264;74259;-19
2023/10/27 03:04:03;;;;;;;5.10;3.20;;;;;;;10.41;88.81;97108.66;105179;1263;71438;-19
2023/10/27 03:06:30;;;;;;;3.90;2.50;;;;;;;10.28;89.58;97106.59;105087;1264;61870;-19
2023/10/27 03:08:57;;;;;;;4.00;2.50;;;;;;;10.60;88.83;97102.57;105001;1267;61237;-19
2023/10/27 03:11:24;;;;;;;5.20;2.90;;;;;;;10.88;87.23;97103.20;104952;1267;72700;-19
2023/10/27 03:13:50;;;;;;;5.40;2.90;;;;;;;10.76;86.92;97101.73;105200;1267;74306;-19
2023/10/27 03:16:17;;;;;;;8.50;3.20;;;;;;;10.52;87.73;97100.45;105126;1276;72518;-19
2023/10/27 03:18:44;;;;;;;4.80;2.60;;;;;;;10.30;88.45;97104.27;105103;1263;61050;-19
2023/10/27 03:21:11;;;;;;;4.80;2.80;;;;;;;10.34;89.01;97103.84;104947;1263;61183;-19
2023/10/27 03:23:38;;;;;;;5.30;2.90;;;;;;;10.62;87.81;97100.17;105004;1264;72961;-19
2023/10/27 03:26:05;;;;;;;4.40;3.20;;;;;;;10.51;87.76;97103.66;105127;1264;74372;-19
2023/10/27 03:28:32;;;;;;;3.40;2.60;;;;;;;10.29;88.85;97109.58;105200;1264;73028;-19
2023/10/27 03:30:59;;;;;;;3.30;2.50;;;;;;;10.06;90.11;97111.09;105213;1267;61635;-19
2023/10/27 03:33:26;;;;;;;6.20;2.90;;;;;;;10.30;89.96;97104.05;105073;1267;61188;-19
2023/10/27 03:35:53;;;;;;;2.80;2.50;;;;;;;10.50;88.85;97101.15;105074;1266;71913;-19
2023/10/27 03:38:20;;;;;;;7.10;2.90;;;;;;;10.41;88.34;97104.95;105246;1264;73177;-19
2023/10/27 03:40:48;;;;;;;7.30;2.90;;;;;;;10.16;89.42;97107.86;105180;1263;72670;-19
2023/10/27 03:43:15;;;;;;;5.60;2.60;;;;;;;9.98;90.58;97111.90;105100;1266;62020;-19
2023/10/27 03:45:42;;;;;;;6.50;2.90;;;;;;;10.35;89.80;97103.09;105138;1263;61158;-19
2023/10/27 03:48:09;;;;;;;6.00;3.20;;;;;;;10.55;88.43;97098.41;105468;1257;73429;-19
2023/10/27 03:50:36;;;;;;;4.00;3.10;;;;;;;10.42;88.07;97099.97;105644;1260;74186;-19
2023/10/27 03:53:04;;;;;;;5.40;3.10;;;;;;;10.15;89.12;97099.96;105626;1258;72657;-19
2023/10/27 03:55:31;;;;;;;6.50;2.30;;;;;;;10.03;89.53;97092.88;105171;1258;62029;-19
2023/10/27 03:58:17;;;;;;;3.80;2.60;;;;;;;10.39;89.12;97090.80;105252;1257;61139;-19
2023/10/27 04:00:45;;;;;;;8.20;2.90;;;;;;;10.76;86.88;97089.44;105326;1263;72275;-19
2023/10/27 04:03:11;;;;;;;6.00;3.00;;;;;;;10.60;86.89;97085.84;105540;1257;74741;-19
2023/10/27 04:05:39;;;;;;;5.50;3.00;;;;;;;10.30;87.84;97087.98;105216;1266;72644;-18
2023/10/27 04:08:05;;;;;;;6.30;2.90;;;;;;;10.08;88.81;97082.96;105628;1257;61067;-19
2023/10/27 04:10:34;;;;;;;6.00;2.40;;;;;;;10.08;89.61;97080.52;105545;1260;61221;-19
2023/10/27 04:13:02;;;;;;;7.70;2.70;;;;;;;10.55;88.13;97072.02;105205;1263;72993;-19
2023/10/27 04:15:29;;;;;;;4.20;2.80;;;;;;;10.73;86.50;97060.14;105198;1258;73279;-19
2023/10/27 04:17:55;;;;;;;4.70;2.70;;;;;;;10.47;86.41;97062.99;105601;1257;72750;-19
2023/10/27 04:20:22;;;;;;;4.60;3.00;;;;;;;10.21;87.38;97062.73;105593;1256;61163;-19
2023/10/27 04:22:49;;;;;;;7.30;2.70;;;;;;;10.01;87.96;97060.64;105586;1260;61153;-19
2023/10/27 04:25:16;;;;;;;5.90;2.80;;;;;;;10.24;88.00;97061.16;105637;1257;71966;-19
2023/10/27 04:27:43;;;;;;;5.10;2.50;;;;;;;10.51;86.77;97056.02;105613;1257;74278;-19
2023/10/27 04:30:11;;;;;;;5.10;3.10;;;;;;;10.37;85.96;97057.39;105605;1258;72625;-20
2023/10/27 04:32:39;;;;;;;7.60;3.50;;;;;;;10.07;86.98;97061.87;105416;1258;61250;-19
2023/10/27 04:35:06;;;;;;;7.50;2.50;;;;;;;9.84;88.65;97058.11;105510;1258;61154;-19
2023/10/27 04:37:33;;;;;;;4.00;2.20;;;;;;;10.23;88.40;97054.96;105373;1257;72772;-19
2023/10/27 04:40:01;;;;;;;4.90;3.20;;;;;;;10.45;87.09;97047.64;105595;1257;74258;-20
2023/10/27 04:42:28;;;;;;;3.90;2.90;;;;;;;10.37;87.09;97049.80;105545;1257;72630;-19
2023/10/27 04:44:55;;;;;;;3.90;3.00;;;;;;;10.09;87.75;97059.03;105496;1257;61058;-20
2023/10/27 04:47:21;;;;;;;6.50;3.10;;;;;;;9.89;88.57;97069.17;105555;1257;61109;-20
2023/10/27 04:49:48;;;;;;;3.60;2.30;;;;;;;9.76;89.04;97066.98;105533;1257;72817;-19
2023/10/27 04:52:15;;;;;;;5.30;2.20;;;;;;;10.18;88.32;97061.80;105597;1258;74190;-19
2023/10/27 04:54:43;;;;;;;4.50;3.00;;;;;;;10.44;86.89;97059.58;105233;1260;73204;-20
2023/10/27 04:57:10;;;;;;;5.10;2.80;;;;;;;10.38;86.92;97058.89;105319;1256;61145;-20
2023/10/27 04:59:37;;;;;;;7.10;3.20;;;;;;;10.19;87.12;97061.55;105594;1260;61182;-20
2023/10/27 05:02:03;;;;;;;4.40;2.80;;;;;;;9.89;88.22;97062.05;105601;1257;72822;-19
2023/10/27 05:04:30;;;;;;;4.40;2.90;;;;;;;9.69;89.59;97070.33;105640;1257;74832;-19
2023/10/27 05:06:58;;;;;;;5.40;3.40;;;;;;;10.01;89.23;97069.58;105611;1263;72491;-20
2023/10/27 05:09:25;;;;;;;6.80;3.40;;;;;;;10.22;88.28;97071.13;105409;1257;61058;-20
2023/10/27 05:11:53;;;;;;;6.80;3.70;;;;;;;10.03;88.28;97076.75;105620;1258;61179;-19
2023/10/27 05:14:21;;;;;;;10.60;4.10;;;;;;;9.82;89.25;97082.58;105630;1257;73141;-19
2023/10/27 05:16:47;;;;;;;6.80;3.40;;;;;;;9.68;90.25;97086.22;105368;1257;74386;-19
2023/10/27 05:19:15;;;;;;;4.70;3.00;;;;;;;10.03;89.86;97083.83;105270;1258;72652;-19
2023/10/27 05:21:42;;;;;;;5.40;3.30;;;;;;;10.31;88.33;97082.61;105460;1258;61054;-19
2023/10/27 05:24:11;;;;;;;7.20;3.20;;;;;;;10.32;87.82;97081.90;105553;1260;61140;-20
2023/10/27 05:26:38;;;;;;;4.00;3.10;;;;;;;10.11;88.23;97081.87;105339;1258;72899;-19
2023/10/27 05:29:05;;;;;;;5.40;2.90;;;;;;;9.96;89.18;97085.08;105471;1258;74637;-19
2023/10/27 05:31:34;;;;;;;6.60;3.00;;;;;;;10.33;88.71;97089.38;105564;1257;72604;-19
2023/10/27 05:34:01;;;;;;;4.50;2.90;;;;;;;10.60;87.21;97086.36;105614;1258;61045;-20
2023/10/27 05:36:29;;;;;;;6.70;3.10;;;;;;;10.53;87.07;97089.45;105660;1258;61121;-19
2023/10/27 05:38:56;;;;;;;9.80;3.20;;;;;;;10.37;87.46;97093.33;105623;1257;72816;-19
2023/10/27 05:41:23;;;;;;;3.40;2.00;;;;;;;10.21;88.09;97093.98;105570;1260;74911;-19
2023/10/27 05:43:50;;;;;;;3.70;2.60;;;;;;;10.52;87.92;97094.21;105544;1258;72616;-19
2023/10/27 05:46:18;;;;;;;4.30;2.60;;;;;;;10.85;86.55;97096.24;105443;1257;61109;-19
2023/10/27 05:50:28;;;;;;;4.90;3.00;;;;;;;10.72;86.33;97099.77;102665;1294;600851;-18
2023/10/27 05:52:56;;;;;;;5.00;3.30;;;;;;;10.46;87.55;97097.52;105045;1267;61062;-18
2023/10/27 06:03:03;;;;;;;5.20;3.10;;;;;;;10.69;87.20;97094.13;102662;1290;599427;-18
2023/10/27 06:05:31;;;;;;;6.70;3.20;;;;;;;10.49;88.12;97094.85;105056;1267;61078;-19
2023/10/27 06:07:59;;;;;;;2.50;2.10;;;;;;;10.44;88.96;97095.41;104886;1268;61062;-18
2023/10/27 06:17:39;;;;;;;5.90;2.80;;;;;;;10.80;87.37;97100.36;102663;1294;601054;-19
2023/10/27 06:20:07;;;;;;;4.40;2.40;;;;;;;10.64;88.40;97105.20;105032;1265;62394;-20
2023/10/27 06:30:27;;;;;;;5.30;3.70;;;;;;;10.98;87.14;97102.26;102659;1291;600046;-21
2023/10/27 06:40:39;;;;;;;5.70;2.80;;;;;;;11.52;86.17;97113.52;102730;1291;599492;-19
2023/10/27 06:43:07;;;;;;;7.10;1.90;;;;;;;11.36;86.83;97117.69;105047;1264;61257;-18
2023/10/27 06:45:34;;;;;;;4.30;2.50;;;;;;;11.84;86.11;97114.26;104920;1269;61202;-19
2023/10/27 06:48:02;;;;;;;3.40;2.30;;;;;;;12.23;84.22;97111.66;105081;1264;72171;-18
2023/10/27 06:50:30;;;;;;;5.20;2.60;;;;;;;12.13;83.65;97109.23;104880;1263;74297;-18
2023/10/27 06:52:58;;;;;;;7.20;2.90;;;;;;;12.07;84.48;97105.93;104807;1267;72694;-18
2023/10/27 06:55:29;;;;;;;5.40;3.80;;;;;;;11.84;85.16;97109.88;102575;1266;61249;-18
2023/10/27 06:57:58;;;;;;;3.20;2.50;;;;;;;11.79;86.46;97111.55;104864;1261;60993;-19
2023/10/27 07:00:25;;;;;;;20.90;15.70;;;;;;;12.21;84.80;97115.73;105000;1266;61166;-19
2023/10/27 07:02:53;;;;;;;5.70;4.60;;;;;;;12.37;83.79;97115.23;104944;1269;73071;-19
2023/10/27 07:13:03;;;;;;;6.60;2.90;;;;;;;12.77;84.33;97125.36;102580;1295;600388;-19
2023/10/27 07:15:31;;;;;;;7.30;5.10;;;;;;;12.99;83.03;97124.20;104807;1271;61174;-19
2023/10/27 07:17:58;;;;;;;7.60;4.10;;;;;;;12.87;82.13;97132.52;104634;1267;61136;-19
2023/10/27 07:20:26;;;;;;;6.80;4.10;;;;;;;12.77;82.77;97138.02;104783;1267;70923;-19
2023/10/27 07:22:54;;;;;;;5.60;2.20;;;;;;;12.66;83.45;97141.59;104710;1272;74324;-19
2023/10/27 07:25:21;;;;;;;4.40;3.70;;;;;;;13.02;82.83;97138.08;104773;1267;72676;-19
2023/10/27 07:27:50;;;;;;;7.30;2.80;;;;;;;13.48;80.71;97135.09;102464;1267;3210817;-19
2023/10/27 07:30:17;;;;;;;5.30;3.10;;;;;;;13.49;80.27;97145.60;104804;1270;61197;-19
2023/10/27 07:32:45;;;;;;;5.60;2.40;;;;;;;13.32;80.72;97148.70;104829;1265;72255;-19
2023/10/27 07:35:13;;;;;;;5.00;2.60;;;;;;;13.18;81.11;97153.53;105067;1269;74321;-19
2023/10/27 07:37:40;;;;;;;16.20;14.60;;;;;;;12.97;82.30;97150.93;105083;1269;73277;-19
2023/10/27 07:40:08;;;;;;;10.00;8.60;;;;;;;13.13;81.75;97148.42;104787;1270;61192;-19
2023/10/27 07:42:36;;;;;;;11.20;6.00;;;;;;;13.37;80.63;97151.89;105120;1266;61180;-19
2023/10/27 07:45:05;;;;;;;9.70;5.70;;;;;;;13.34;80.63;97156.12;104794;1270;73069;-19
2023/10/27 07:47:33;;;;;;;7.20;6.60;;;;;;;13.21;81.25;97163.70;104866;1267;74739;-19
2023/10/27 07:50:00;;;;;;;4.50;3.60;;;;;;;13.08;82.53;97156.38;104806;1266;71467;-19
2023/10/27 07:52:28;;;;;;;5.50;2.50;;;;;;;12.94;82.29;97153.46;104768;1268;62361;-19
2023/10/27 07:54:56;;;;;;;10.30;4.80;;;;;;;13.38;81.83;97152.71;108600;1271;60013;-20
2023/10/27 07:57:23;;;;;;;6.70;3.40;;;;;;;13.77;81.38;97146.90;108762;1264;72119;-20
2023/10/27 07:59:51;;;;;;;41.40;37.80;;;;;;;13.80;79.78;97148.81;108770;1264;74299;-20
2023/10/27 08:02:18;;;;;;;17.60;15.90;;;;;;;13.68;80.68;97155.90;108640;1265;72778;-20
2023/10/27 08:04:46;;;;;;;9.80;8.40;;;;;;;13.56;80.68;97156.88;108581;1266;59694;-20
2023/10/27 08:07:13;;;;;;;7.20;5.80;;;;;;;13.54;80.98;97154.97;108681;1265;60452;-20
2023/10/27 08:09:41;;;;;;;6.20;5.50;;;;;;;14.01;79.30;97157.52;108625;1266;73013;-20
2023/10/27 08:12:08;;;;;;;9.70;6.10;;;;;;;14.23;78.51;97155.67;108724;1265;74555;-20
2023/10/27 08:14:37;;;;;;;7.00;6.00;;;;;;;14.14;78.08;97162.39;108727;1265;72709;-20
2023/10/27 08:17:05;;;;;;;8.90;6.60;;;;;;;14.03;79.17;97164.48;108565;1266;58866;-21
2023/10/27 08:19:32;;;;;;;10.30;6.70;;;;;;;13.92;80.15;97158.50;108611;1265;59400;-20
2023/10/27 08:22:00;;;;;;;5.20;3.80;;;;;;;13.84;80.81;97154.02;108695;1265;72799;-20
2023/10/27 08:24:27;;;;;;;7.20;6.20;;;;;;;14.43;79.41;97152.48;108577;1266;74311;-20
2023/10/27 08:26:55;;;;;;;10.70;6.10;;;;;;;14.84;76.64;97148.48;108644;1266;71796;-21
2023/10/27 08:29:22;;;;;;;8.00;7.10;;;;;;;14.88;75.71;97150.46;108587;1265;58863;-21
2023/10/27 08:31:51;;;;;;;7.00;5.50;;;;;;;14.86;76.17;97148.91;108685;1266;60115;-20
2023/10/27 08:34:21;;;;;;;7.30;4.20;;;;;;;14.71;75.97;97143.31;108584;1266;73171;-20
2023/10/27 08:36:49;;;;;;;5.90;3.90;;;;;;;14.68;76.58;97143.55;108653;1266;73221;-20
2023/10/27 08:39:16;;;;;;;6.30;3.50;;;;;;;14.53;75.97;97141.59;108619;1266;72675;-20
2023/10/27 08:41:43;;;;;;;11.90;8.00;;;;;;;14.46;75.85;97135.66;108601;1266;60096;-20
2023/10/27 08:44:12;;;;;;;7.30;3.90;;;;;;;14.47;75.95;97136.75;108575;1266;58850;-20
2023/10/27 08:46:53;;;;;;;8.50;5.40;;;;;;;14.89;74.49;97137.39;108690;1266;73124;-20
2023/10/27 08:49:21;;;;;;;7.00;3.00;;;;;;;15.07;72.35;97135.06;108693;1267;74473;-21
2023/10/27 08:51:49;;;;;;;8.20;3.30;;;;;;;14.79;71.18;97130.93;108561;1266;72770;-21
2023/10/27 08:54:16;;;;;;;4.20;3.10;;;;;;;14.83;71.90;97130.77;108658;1266;58860;-21
2023/10/27 08:56:44;;;;;;;8.40;3.60;;;;;;;14.75;73.17;97131.61;108650;1266;58870;-21
2023/10/27 08:59:11;;;;;;;6.60;4.40;;;;;;;14.59;74.23;97131.02;108666;1265;73175;-21
2023/10/27 09:01:39;;;;;;;6.60;4.00;;;;;;;14.46;74.25;97134.29;108928;1259;72757;-21
2023/10/27 09:04:10;;;;;;;5.90;4.20;;;;;;;14.32;75.01;97127.40;109049;1259;72812;-21
2023/10/27 09:06:39;;;;;;;8.00;6.00;;;;;;;14.45;76.40;97122.27;108930;1258;61727;-21
2023/10/27 09:09:07;;;;;;;9.20;3.40;;;;;;;15.08;75.10;97111.60;109089;1258;60052;-21
2023/10/27 09:11:45;;;;;;;5.30;4.20;;;;;;;15.34;72.82;97108.08;109096;1258;73121;-21
2023/10/27 09:14:23;;;;;;;5.30;3.90;;;;;;;15.31;72.25;97108.09;109065;1259;74467;-21
2023/10/27 09:16:51;;;;;;;7.50;4.50;;;;;;;15.16;72.30;97106.36;108860;1259;72782;-21
2023/10/27 09:19:19;;;;;;;8.30;5.10;;;;;;;15.00;72.64;97100.06;109053;1259;60131;-21
2023/10/27 09:21:47;;;;;;;4.30;3.30;;;;;;;14.86;73.10;97097.52;109002;1259;60101;-21
2023/10/27 09:24:35;;;;;;;6.00;4.40;;;;;;;14.66;73.40;97097.27;108990;1260;70976;-21
2023/10/27 09:27:02;;;;;;;5.70;3.20;;;;;;;14.64;74.51;97092.71;108995;1259;73224;-21
2023/10/27 09:29:40;;;;;;;5.00;2.70;;;;;;;15.20;73.07;97095.42;108954;1260;71511;-22
2023/10/27 09:32:24;;;;;;;4.60;2.70;;;;;;;15.71;72.57;97084.08;108956;1260;58799;-22
2023/10/27 09:35:10;;;;;;;6.30;3.60;;;;;;;15.63;70.92;97087.61;108850;1260;58664;-22
2023/10/27 09:37:37;;;;;;;5.20;3.10;;;;;;;15.47;71.93;97085.86;108973;1260;72322;-22
2023/10/27 09:40:09;;;;;;;4.60;3.60;;;;;;;15.43;73.00;97079.47;108934;1260;72918;-22
2023/10/27 09:42:38;;;;;;;4.80;3.10;;;;;;;15.38;73.24;97066.45;108954;1259;72653;-22
2023/10/27 09:45:12;;;;;;;6.10;3.80;;;;;;;15.31;74.10;97055.48;108917;1259;58889;-22
2023/10/27 09:47:47;;;;;;;4.50;3.10;;;;;;;15.20;74.06;97049.20;109000;1259;58942;-22
2023/10/27 09:50:18;;;;;;;6.80;2.80;;;;;;;15.17;74.54;97039.29;108792;1260;71832;-22
2023/10/27 09:52:46;;;;;;;3.70;2.70;;;;;;;15.71;73.64;97043.77;108989;1259;73201;-22
2023/10/27 09:55:14;;;;;;;5.00;4.40;;;;;;;16.06;72.48;97047.36;108955;1263;71464;-22
2023/10/27 09:57:44;;;;;;;5.20;3.90;;;;;;;16.10;72.25;97044.64;109025;1260;60121;-22
2023/10/27 10:00:14;;;;;;;6.50;3.70;;;;;;;16.03;72.84;97047.50;108947;1260;60001;-22
2023/10/27 10:02:42;;;;;;;4.70;3.20;;;;;;;16.01;72.48;97041.81;108924;1260;73051;-23
2023/10/27 10:05:11;;;;;;;8.00;3.70;;;;;;;16.16;72.83;97035.80;109071;1259;74165;-22
2023/10/27 10:08:14;;;;;;;6.70;3.60;;;;;;;16.55;72.80;97034.74;109054;1259;72762;-21
2023/10/27 10:10:34;;;;;;;4.60;2.50;;;;;;;17.23;70.25;97028.42;108906;1259;59007;-22
2023/10/27 10:13:02;;;;;;;8.20;2.80;;;;;;;17.66;67.53;97031.51;109091;1259;60115;-22
2023/10/27 10:15:31;;;;;;;5.70;2.40;;;;;;;17.76;67.16;97030.87;108958;1260;72205;-22
2023/10/27 10:18:19;;;;;;;4.30;2.20;;;;;;;17.73;65.63;97034.46;108899;1260;74468;-22
2023/10/27 10:20:56;;;;;;;7.30;2.60;;;;;;;17.67;66.36;97033.33;109000;1259;71468;-22
2023/10/27 10:23:50;;;;;;;5.20;2.30;;;;;;;17.69;66.05;97020.80;108850;1260;58906;-22
2023/10/27 10:26:17;;;;;;;5.30;2.10;;;;;;;17.81;67.03;97020.96;108831;1264;60209;-22
2023/10/27 10:28:46;;;;;;;3.30;2.10;;;;;;;17.79;66.68;97016.90;108915;1260;73133;-22
2023/10/27 10:31:14;;;;;;;3.90;2.20;;;;;;;17.80;67.12;97013.94;108931;1260;74449;-22
2023/10/27 10:33:44;;;;;;;6.70;2.30;;;;;;;17.81;67.08;97017.80;108957;1260;71761;-22
2023/10/27 10:36:18;;;;;;;4.90;2.30;;;;;;;17.72;66.85;97012.72;108883;1260;58963;-22
2023/10/27 10:38:58;;;;;;;6.80;2.50;;;;;;;17.57;67.11;97012.05;108874;1260;60120;-22
2023/10/27 10:41:41;;;;;;;3.70;2.10;;;;;;;17.42;67.58;97006.84;108840;1260;71873;-22
2023/10/27 10:44:15;;;;;;;4.20;1.90;;;;;;;17.37;67.86;97008.02;108945;1260;74413;-22
2023/10/27 10:46:44;;;;;;;3.70;2.00;;;;;;;17.31;67.87;97002.14;108920;1260;72864;-22
2023/10/27 10:49:32;;;;;;;3.20;2.00;;;;;;;17.35;68.71;96997.23;108807;1260;60150;-22
2023/10/27 10:52:00;;;;;;;3.60;1.70;;;;;;;17.33;67.23;96991.76;108925;1260;58838;-22
2023/10/27 10:54:31;;;;;;;3.60;1.30;;;;;;;17.13;67.03;96991.01;109044;1259;73158;-22
2023/10/27 10:57:00;;;;;;;3.10;1.20;;;;;;;16.94;66.66;96983.36;108941;1260;74515;-22
2023/10/27 10:59:27;;;;;;;2.00;1.50;;;;;;;16.84;67.66;96981.12;109021;1259;72742;-22
2023/10/27 11:01:56;;;;;;;2.20;1.30;;;;;;;16.78;67.67;96974.19;108921;1260;58876;-22
2023/10/27 11:04:28;;;;;;;2.90;1.10;;;;;;;16.72;66.71;96973.51;108810;1260;58838;-22
2023/10/27 11:07:08;;;;;;;2.10;1.30;;;;;;;16.60;67.20;96972.83;108881;1260;73142;-22
2023/10/27 11:09:36;;;;;;;3.20;1.60;;;;;;;16.53;67.53;96968.20;109049;1259;74430;-22
2023/10/27 11:12:04;;;;;;;4.80;1.30;;;;;;;16.50;67.76;96971.30;108976;1260;72762;-22
2023/10/27 11:14:41;;;;;;;1.60;0.90;;;;;;;16.41;66.75;96971.27;108914;1260;58907;-22
2023/10/27 11:17:11;;;;;;;5.90;1.20;;;;;;;16.28;67.24;96977.11;108900;1260;60131;-22
2023/10/27 11:19:52;;;;;;;3.10;1.30;;;;;;;16.22;67.73;96977.11;108939;1260;71734;-22
2023/10/27 11:22:25;;;;;;;1.90;1.10;;;;;;;16.23;68.35;96969.69;108953;1260;74506;-22
2023/10/27 11:24:53;;;;;;;2.00;1.40;;;;;;;16.24;68.05;96970.68;108874;1260;71361;-22
2023/10/27 11:27:27;;;;;;;3.70;1.50;;;;;;;16.22;68.35;96971.98;108932;1260;60263;-22
2023/10/27 11:30:01;;;;;;;0.80;0.70;;;;;;;16.28;67.23;96964.83;108829;1260;58856;-22
2023/10/27 11:32:28;;;;;;;2.00;0.80;;;;;;;16.73;65.36;96959.87;108964;1259;73922;-22
2023/10/27 11:34:57;;;;;;;2.70;1.00;;;;;;;16.99;65.06;96953.67;108930;1260;73281;-22
2023/10/27 11:37:25;;;;;;;1.70;0.90;;;;;;;16.96;63.61;96950.21;108836;1260;71488;-22
2023/10/27 11:39:54;;;;;;;2.70;1.30;;;;;;;16.91;63.94;96942.13;108885;1260;60133;-22
2023/10/27 11:42:21;;;;;;;3.10;1.20;;;;;;;16.88;65.42;96940.61;108978;1260;60071;-22
2023/10/27 11:44:49;;;;;;;3.90;1.30;;;;;;;16.78;65.16;96935.60;108986;1260;73894;-23
2023/10/27 11:47:17;;;;;;;2.00;1.10;;;;;;;16.66;65.57;96934.18;108955;1260;74507;-22
2023/10/27 11:49:44;;;;;;;4.90;1.50;;;;;;;16.53;66.00;96935.19;108887;1260;73744;-22
2023/10/27 11:52:14;;;;;;;3.30;1.40;;;;;;;16.45;67.10;96932.79;108884;1261;60124;-22
2023/10/27 11:54:42;;;;;;;3.70;1.50;;;;;;;16.42;67.74;96934.79;108891;1260;60084;-22
2023/10/27 11:57:10;;;;;;;2.70;1.50;;;;;;;16.36;68.43;96930.42;108933;1260;72620;-22
2023/10/27 11:59:38;;;;;;;2.00;1.30;;;;;;;16.29;68.17;96924.63;108992;1259;72184;-22
2023/10/27 12:02:05;;;;;;;2.80;1.70;;;;;;;16.24;68.68;96925.85;108922;1260;71394;-22
2023/10/27 12:04:33;;;;;;;6.70;3.70;;;;;;;16.19;68.70;96924.05;108961;1259;58944;-22
2023/10/27 12:07:00;;;;;;;9.10;5.30;;;;;;;16.16;68.85;96917.41;108929;1260;60101;-22
2023/10/27 12:09:28;;;;;;;5.50;3.70;;;;;;;16.60;67.92;96922.42;108827;1260;73954;-22
2023/10/27 12:11:55;;;;;;;7.00;3.90;;;;;;;16.89;66.26;96926.23;108834;1260;73459;-23
2023/10/27 12:14:23;;;;;;;5.40;3.10;;;;;;;16.91;66.74;96924.56;108800;1261;71582;-22
2023/10/27 12:16:52;;;;;;;4.60;2.60;;;;;;;16.85;67.17;96921.71;108868;1262;60166;-22
2023/10/27 12:19:20;;;;;;;2.80;1.90;;;;;;;16.74;67.28;96920.30;108875;1262;58788;-22
2023/10/27 12:21:49;;;;;;;5.80;2.40;;;;;;;16.63;68.03;96918.85;108793;1262;73920;-22
2023/10/27 12:24:17;;;;;;;5.60;3.20;;;;;;;16.55;68.54;96916.70;108967;1261;74488;-22
2023/10/27 12:26:44;;;;;;;5.20;3.20;;;;;;;16.49;68.86;96914.16;108837;1262;72773;-22
2023/10/27 12:29:12;;;;;;;5.60;3.20;;;;;;;16.41;68.92;96912.45;108927;1260;58822;-22
2023/10/27 12:31:40;;;;;;;5.00;2.70;;;;;;;16.30;69.30;96910.69;108911;1262;58836;-22
2023/10/27 12:34:11;;;;;;;3.40;2.30;;;;;;;16.25;70.17;96909.00;108936;1261;73933;-22
2023/10/27 12:36:38;;;;;;;3.10;1.90;;;;;;;16.79;70.06;96905.08;108935;1262;74489;-22
2023/10/27 12:39:07;;;;;;;3.90;2.20;;;;;;;17.36;67.61;96897.19;108953;1261;72701;-23
2023/10/27 12:41:36;;;;;;;5.50;2.00;;;;;;;17.46;66.62;96898.71;108926;1260;60600;-22
2023/10/27 12:44:04;;;;;;;4.10;2.50;;;;;;;17.36;66.57;96897.23;108898;1262;60105;-22
2023/10/27 12:46:31;;;;;;;6.00;2.80;;;;;;;17.16;67.20;96895.05;108823;1262;72623;-22
2023/10/27 12:49:01;;;;;;;4.80;2.80;;;;;;;16.95;67.36;96894.94;108882;1261;74467;-22
2023/10/27 12:51:28;;;;;;;2.60;1.50;;;;;;;16.73;67.71;96892.02;108764;1261;72883;-23
2023/10/27 12:53:57;;;;;;;3.20;1.90;;;;;;;16.53;68.15;96890.61;108933;1260;60140;-22
2023/10/27 12:56:24;;;;;;;3.60;1.60;;;;;;;16.38;68.78;96885.15;108889;1261;59151;-22